createdAt,value
2018-07-11T04:50:08.746Z,5.20
2018-07-11T04:51:15.518Z,5.10
2018-07-11T04:52:22.433Z,5.47
2018-07-11T04:53:29.725Z,5.30
2018-07-11T04:54:36.309Z,5.80
2018-07-11T04:55:44.010Z,5.63
2018-07-11T04:56:50.571Z,4.60
2018-07-11T04:57:56.865Z,5.27
2018-07-11T04:59:04.999Z,5.70
2018-07-11T05:00:11.316Z,5.10
2018-07-11T05:01:17.957Z,5.13
2018-07-11T05:02:24.634Z,5.10
2018-07-11T05:03:33.059Z,5.07
2018-07-11T05:04:39.491Z,5.30
2018-07-11T05:05:47.764Z,5.47
2018-07-11T05:06:54.004Z,4.83
2018-07-11T05:08:02.274Z,5.20
2018-07-11T05:09:08.738Z,4.50
2018-07-11T05:10:17.217Z,5.23
2018-07-11T05:11:24.913Z,4.93
2018-07-11T05:12:31.193Z,4.47
2018-07-11T05:13:38.176Z,4.60
2018-07-11T05:14:44.520Z,4.70
2018-07-11T05:15:52.327Z,4.40
2018-07-11T05:16:59.945Z,4.37
2018-07-11T05:18:06.140Z,4.20
2018-07-11T05:19:14.295Z,4.10
2018-07-11T05:20:23.791Z,4.27
2018-07-11T05:21:31.024Z,4.73
2018-07-11T05:22:37.296Z,4.67
2018-07-11T05:23:45.388Z,5.30
2018-07-11T05:24:51.656Z,4.53
2018-07-11T05:25:58.370Z,4.63
2018-07-11T05:27:07.022Z,5.13
2018-07-11T05:28:15.270Z,4.20
2018-07-11T05:29:23.565Z,4.90
2018-07-11T05:30:33.560Z,4.30
2018-07-11T05:31:39.861Z,4.70
2018-07-11T05:32:46.253Z,5.83
2018-07-11T05:33:52.561Z,4.37
2018-07-11T05:35:05.016Z,4.30
2018-07-11T05:36:11.358Z,4.20
2018-07-11T05:37:17.650Z,4.77
2018-07-11T05:38:27.259Z,4.63
2018-07-11T05:39:34.592Z,4.47
2018-07-11T05:40:43.034Z,4.87
2018-07-11T05:41:49.390Z,4.93
2018-07-11T05:42:55.936Z,4.80
2018-07-11T05:44:03.529Z,4.80
2018-07-11T05:45:10.560Z,5.03
2018-07-11T05:46:16.831Z,5.40
2018-07-11T05:47:23.604Z,4.40
2018-07-11T05:48:29.900Z,4.60
2018-07-11T05:49:36.912Z,5.63
2018-07-11T05:50:43.165Z,4.80
2018-07-11T05:51:49.408Z,4.80
2018-07-11T05:52:58.263Z,4.50
2018-07-11T05:54:04.635Z,4.70
2018-07-11T05:55:11.320Z,4.70
2018-07-11T05:56:18.524Z,5.50
2018-07-11T05:57:26.800Z,5.20
2018-07-11T05:58:33.059Z,5.17
2018-07-11T05:59:39.595Z,4.50
2018-07-11T06:00:45.887Z,5.07
2018-07-11T06:01:52.458Z,5.30
2018-07-11T06:02:59.618Z,5.17
2018-07-11T06:04:08.362Z,4.43
2018-07-11T06:05:15.204Z,5.23
2018-07-11T06:06:21.620Z,4.70
2018-07-11T06:07:27.881Z,5.03
2018-07-11T06:08:35.241Z,4.70
2018-07-11T06:09:42.467Z,5.10
2018-07-11T06:10:48.674Z,5.10
2018-07-11T06:11:55.201Z,4.80
2018-07-11T06:13:02.492Z,5.10
2018-07-11T06:14:08.793Z,5.37
2018-07-11T06:15:16.043Z,4.93
2018-07-11T06:16:22.545Z,5.10
2018-07-11T06:17:28.874Z,5.37
2018-07-11T06:18:36.820Z,4.60
2018-07-11T06:19:43.022Z,5.30
2018-07-11T06:20:49.143Z,5.23
2018-07-11T06:21:55.313Z,5.40
2018-07-11T06:23:02.594Z,5.57
2018-07-11T06:24:09.008Z,5.20
2018-07-11T06:25:15.617Z,6.00
2018-07-11T06:26:21.822Z,5.50
2018-07-11T06:27:28.530Z,6.40
2018-07-11T06:28:34.747Z,5.40
2018-07-11T06:29:42.210Z,5.53
2018-07-11T06:30:48.432Z,5.90
2018-07-11T06:31:54.685Z,5.30
2018-07-11T06:33:00.790Z,5.50
2018-07-11T06:34:09.092Z,5.80
2018-07-11T06:35:16.129Z,5.33
2018-07-11T06:36:22.384Z,6.50
2018-07-11T06:37:28.865Z,6.30
2018-07-11T06:38:38.383Z,6.37
2018-07-11T06:39:45.350Z,5.47
2018-07-11T06:40:51.701Z,6.50
2018-07-11T06:41:58.068Z,5.90
2018-07-11T06:43:05.584Z,6.73
2018-07-11T06:44:11.971Z,6.13
2018-07-11T06:45:20.054Z,6.83
2018-07-11T06:46:27.798Z,5.90
2018-07-11T06:47:33.979Z,6.00
2018-07-11T06:48:43.186Z,7.93
2018-07-11T06:49:49.419Z,6.93
2018-07-11T06:50:55.672Z,6.37
2018-07-11T06:52:01.838Z,6.20
2018-07-11T06:53:09.213Z,6.83
2018-07-11T06:54:15.546Z,6.80
2018-07-11T06:55:21.829Z,7.60
2018-07-11T06:56:28.061Z,6.30
2018-07-11T06:57:35.045Z,7.07
2018-07-11T06:58:43.019Z,6.30
2018-07-11T06:59:49.159Z,7.30
2018-07-11T07:00:57.109Z,6.90
2018-07-11T07:02:03.303Z,6.47
2018-07-11T07:03:09.519Z,6.00
2018-07-11T07:04:15.769Z,6.73
2018-07-11T07:05:22.840Z,6.53
2018-07-11T07:06:30.252Z,6.63
2018-07-11T07:07:37.288Z,6.20
2018-07-11T07:08:43.539Z,6.37
2018-07-11T07:09:50.598Z,5.70
2018-07-11T07:10:57.691Z,6.33
2018-07-11T07:12:05.044Z,7.17
2018-07-11T07:13:12.808Z,6.07
2018-07-11T07:14:19.012Z,6.57
2018-07-11T07:15:25.010Z,5.90
2018-07-11T07:16:31.279Z,6.30
2018-07-11T07:17:38.366Z,5.80
2018-07-11T07:18:44.487Z,5.83
2018-07-11T07:19:52.531Z,5.67
2018-07-11T07:20:58.774Z,6.70
2018-07-11T07:22:05.026Z,5.70
2018-07-11T07:23:11.100Z,5.90
2018-07-11T07:24:17.623Z,7.13
2018-07-11T07:25:24.070Z,7.40
2018-07-11T07:26:31.322Z,5.63
2018-07-11T07:27:38.295Z,6.30
2018-07-11T07:28:45.552Z,6.03
2018-07-11T07:29:51.972Z,5.77
2018-07-11T07:31:00.414Z,5.97
2018-07-11T07:32:06.702Z,5.27
2018-07-11T07:33:13.738Z,6.53
2018-07-11T07:34:20.024Z,6.57
2018-07-11T07:35:27.194Z,6.67
2018-07-11T07:36:34.852Z,6.30
2018-07-11T07:37:40.982Z,5.93
2018-07-11T07:38:47.558Z,5.60
2018-07-11T07:39:53.694Z,6.13
2018-07-11T07:41:00.172Z,5.37
2018-07-11T07:42:06.544Z,5.90
2018-07-11T07:43:12.876Z,5.37
2018-07-11T07:44:19.224Z,5.63
2018-07-11T07:45:27.212Z,5.90
2018-07-11T07:46:34.903Z,5.93
2018-07-11T07:47:47.950Z,5.40
2018-07-11T07:48:55.054Z,6.20
2018-07-11T07:50:01.806Z,5.90
2018-07-11T07:51:08.097Z,5.93
2018-07-11T07:52:14.464Z,6.27
2018-07-11T07:53:21.357Z,5.77
2018-07-11T07:54:30.288Z,5.47
2018-07-11T07:55:37.813Z,5.60
2018-07-11T07:56:44.304Z,4.77
2018-07-11T07:57:50.454Z,5.83
2018-07-11T07:58:56.792Z,6.10
2018-07-11T08:00:03.209Z,6.63
2018-07-11T08:01:09.612Z,5.40
2018-07-11T08:02:16.752Z,5.30
2018-07-11T08:03:23.026Z,5.43
2018-07-11T08:04:29.447Z,5.70
2018-07-11T08:05:35.792Z,5.60
2018-07-11T08:06:44.358Z,5.30
2018-07-11T08:07:53.636Z,5.27
2018-07-11T08:08:59.971Z,5.13
2018-07-11T08:10:06.367Z,4.80
2018-07-11T08:11:13.912Z,5.20
2018-07-11T08:12:20.194Z,5.07
2018-07-11T08:13:26.384Z,5.50
2018-07-11T08:14:32.566Z,5.53
2018-07-11T08:15:39.094Z,5.70
2018-07-11T08:16:45.419Z,4.93
2018-07-11T08:17:51.789Z,5.20
2018-07-11T08:18:57.934Z,4.83
2018-07-11T08:20:03.993Z,5.40
2018-07-11T08:21:10.298Z,6.10
2018-07-11T08:23:30.480Z,5.60
2018-07-11T08:24:46.984Z,5.37
2018-07-11T08:26:04.399Z,5.17
2018-07-11T08:27:25.832Z,4.50
2018-07-11T08:30:01.767Z,4.73
2018-07-11T08:31:21.425Z,4.67
2018-07-11T08:33:10.740Z,4.50
2018-07-11T08:34:35.585Z,5.03
2018-07-11T08:38:04.544Z,4.60
2018-07-11T08:39:22.727Z,4.80
2018-07-11T08:42:44.606Z,5.00
2018-07-11T08:46:07.825Z,4.60
2018-07-11T08:48:26.052Z,4.57
2018-07-11T08:51:48.861Z,5.00
2018-07-11T08:53:21.324Z,4.20
2018-07-11T08:55:38.012Z,4.33
2018-07-11T08:57:55.137Z,4.70
2018-07-11T09:00:12.527Z,4.00
2018-07-11T09:01:30.147Z,4.10
2018-07-11T09:02:48.812Z,4.53
2018-07-11T09:04:08.076Z,4.20
2018-07-11T09:05:26.036Z,4.17
2018-07-11T09:06:40.750Z,4.50
2018-07-11T09:08:00.534Z,3.97
2018-07-11T09:09:31.156Z,4.70
2018-07-11T09:12:46.772Z,4.63
2018-07-11T09:15:17.486Z,4.10
2018-07-11T09:17:28.793Z,4.07
2018-07-11T09:20:43.375Z,4.80
2018-07-11T09:22:01.827Z,4.53
2018-07-11T09:23:51.860Z,5.00
2018-07-11T09:24:58.875Z,4.50
2018-07-11T09:26:06.016Z,4.47
2018-07-11T09:27:13.601Z,4.83
2018-07-11T09:28:20.829Z,4.63
2018-07-11T09:29:28.035Z,4.50
2018-07-11T09:30:35.533Z,4.63
2018-07-11T09:31:44.055Z,4.80
2018-07-11T09:32:50.378Z,4.50
2018-07-11T09:33:56.653Z,5.00
2018-07-11T09:35:02.803Z,4.40
2018-07-11T09:36:10.012Z,5.00
2018-07-11T09:37:16.209Z,4.63
2018-07-11T09:38:22.389Z,4.80
2018-07-11T09:39:30.474Z,5.20
2018-07-11T09:40:38.565Z,4.77
2018-07-11T09:41:46.973Z,4.93
2018-07-11T09:42:53.947Z,4.80
2018-07-11T09:44:02.931Z,5.00
2018-07-11T09:45:10.279Z,4.60
2018-07-11T09:46:17.457Z,4.60
2018-07-11T09:47:28.501Z,4.90
2018-07-11T09:48:37.121Z,5.07
2018-07-11T09:49:43.835Z,5.67
2018-07-11T09:50:51.319Z,4.63
2018-07-11T09:51:59.129Z,4.80
2018-07-11T09:53:06.769Z,4.90
2018-07-11T09:54:13.909Z,4.30
2018-07-11T09:55:21.038Z,5.60
2018-07-11T09:56:27.320Z,4.87
2018-07-11T09:57:34.388Z,4.93
2018-07-11T09:58:42.021Z,4.43
2018-07-11T09:59:49.315Z,4.30
2018-07-11T10:01:02.090Z,4.50
2018-07-11T10:02:08.380Z,4.80
2018-07-11T10:03:16.541Z,5.37
2018-07-11T10:04:23.909Z,6.70
2018-07-11T10:05:31.154Z,5.27
2018-07-11T10:06:37.798Z,4.90
2018-07-11T10:07:44.886Z,4.50
2018-07-11T10:08:53.163Z,7.37
2018-07-11T10:10:00.908Z,6.23
2018-07-11T10:11:07.451Z,5.60
2018-07-11T10:12:16.141Z,5.03
2018-07-11T10:13:23.392Z,6.30
2018-07-11T10:14:30.670Z,5.97
2018-07-11T10:15:36.780Z,5.87
2018-07-11T10:16:44.969Z,5.97
2018-07-11T10:17:51.373Z,5.93
2018-07-11T10:19:03.747Z,6.03
2018-07-11T10:20:10.754Z,5.50
2018-07-11T10:21:17.397Z,9.67
2018-07-11T10:22:23.816Z,5.77
2018-07-11T10:23:31.481Z,4.20
2018-07-11T10:24:39.082Z,4.63
2018-07-11T10:25:47.887Z,6.50
2018-07-11T10:26:54.120Z,5.33
2018-07-11T10:28:10.861Z,5.40
2018-07-11T10:29:17.301Z,4.80
2018-07-11T10:30:23.779Z,5.10
2018-07-11T10:31:30.938Z,4.70
2018-07-11T10:32:38.338Z,5.33
2018-07-11T10:33:44.844Z,5.33
2018-07-11T10:34:51.965Z,5.30
2018-07-11T10:35:58.316Z,5.43
2018-07-11T10:37:06.544Z,5.00
2018-07-11T10:38:14.109Z,5.00
2018-07-11T10:39:21.403Z,5.13
2018-07-11T10:40:27.821Z,4.50
2018-07-11T10:41:35.714Z,5.03
2018-07-11T10:42:43.818Z,5.23
2018-07-11T10:43:51.649Z,5.63
2018-07-11T10:44:59.312Z,5.20
2018-07-11T10:46:05.899Z,5.27
2018-07-11T10:47:14.441Z,5.83
2018-07-11T10:48:21.834Z,5.03
2018-07-11T10:51:02.349Z,5.03
2018-07-11T10:52:10.126Z,5.10
2018-07-11T10:53:16.462Z,4.70
2018-07-11T10:54:26.666Z,5.23
2018-07-11T10:55:33.884Z,4.93
2018-07-11T10:56:40.237Z,5.00
2018-07-11T10:57:47.359Z,4.60
2018-07-11T10:58:55.258Z,5.00
2018-07-11T11:00:02.800Z,4.90
2018-07-11T11:01:09.931Z,5.20
2018-07-11T11:02:22.445Z,5.03
2018-07-11T11:03:30.694Z,4.83
2018-07-11T11:04:37.771Z,5.10
2018-07-11T11:05:44.004Z,4.77
2018-07-11T11:06:51.788Z,5.47
2018-07-11T11:07:57.990Z,4.93
2018-07-11T11:09:06.414Z,4.87
2018-07-11T11:10:13.556Z,4.60
2018-07-11T11:11:19.760Z,4.80
2018-07-11T11:12:26.711Z,4.70
2018-07-11T11:13:34.472Z,4.50
2018-07-11T11:14:42.740Z,4.60
2018-07-11T11:15:49.040Z,4.73
2018-07-11T11:16:55.096Z,4.83
2018-07-11T11:18:03.104Z,4.90
2018-07-11T11:19:09.304Z,4.97
2018-07-11T11:20:15.532Z,5.07
2018-07-11T11:21:22.556Z,5.30
2018-07-11T11:22:29.526Z,5.10
2018-07-11T11:23:36.764Z,4.97
2018-07-11T11:24:43.178Z,4.87
2018-07-11T11:25:49.600Z,5.10
2018-07-11T11:26:55.754Z,5.53
2018-07-11T11:28:02.812Z,4.93
2018-07-11T11:29:09.856Z,5.70
2018-07-11T11:30:16.831Z,4.30
2018-07-11T11:31:24.074Z,5.13
2018-07-11T11:32:30.485Z,5.23
2018-07-11T11:33:37.710Z,4.87
2018-07-11T11:34:43.764Z,5.37
2018-07-11T11:35:50.416Z,5.00
2018-07-11T11:36:56.913Z,5.37
2018-07-11T11:38:03.094Z,4.30
2018-07-11T11:39:09.138Z,4.43
2018-07-11T11:40:16.306Z,5.50
2018-07-11T11:41:23.307Z,5.27
2018-07-11T11:42:30.991Z,4.60
2018-07-11T11:43:37.050Z,5.00
2018-07-11T11:44:43.300Z,4.90
2018-07-11T11:45:50.891Z,5.17
2018-07-11T11:47:01.648Z,5.10
2018-07-11T11:48:08.785Z,5.33
2018-07-11T11:49:14.800Z,4.80
2018-07-11T11:50:20.974Z,5.67
2018-07-11T11:51:27.217Z,4.50
2018-07-11T11:52:34.512Z,5.30
2018-07-11T11:53:40.970Z,5.20
2018-07-11T11:54:47.279Z,5.10
2018-07-11T11:55:54.588Z,5.23
2018-07-11T11:57:01.006Z,5.47
2018-07-11T11:58:07.384Z,4.70
2018-07-11T11:59:16.212Z,4.30
2018-07-11T12:00:25.303Z,5.00
2018-07-11T12:01:31.552Z,5.20
2018-07-11T12:02:37.668Z,5.23
2018-07-11T12:03:44.391Z,4.67
2018-07-11T12:04:52.188Z,4.63
2018-07-11T12:05:59.126Z,5.27
2018-07-11T12:07:06.751Z,5.47
2018-07-11T12:08:13.349Z,4.83
2018-07-11T12:09:19.811Z,4.67
2018-07-11T12:10:26.762Z,4.60
2018-07-11T12:11:32.885Z,4.80
2018-07-11T12:12:39.604Z,5.70
2018-07-11T12:13:47.209Z,4.83
2018-07-11T12:14:54.656Z,5.57
2018-07-11T12:16:02.627Z,5.63
2018-07-11T12:17:08.762Z,5.27
2018-07-11T12:18:15.957Z,5.00
2018-07-11T12:19:23.190Z,5.50
2018-07-11T12:20:29.422Z,5.03
2018-07-11T12:21:37.662Z,5.50
2018-07-11T12:22:46.950Z,5.00
2018-07-11T12:23:54.091Z,5.67
2018-07-11T12:25:00.586Z,5.20
2018-07-11T12:26:10.116Z,5.63
2018-07-11T12:27:18.278Z,5.93
2018-07-11T12:28:25.416Z,6.07
2018-07-11T12:29:31.633Z,5.00
2018-07-11T12:30:37.834Z,5.00
2018-07-11T12:31:44.870Z,5.50
2018-07-11T12:32:51.438Z,5.50
2018-07-11T12:33:58.876Z,5.20
2018-07-11T12:35:05.989Z,5.37
2018-07-11T12:36:12.004Z,5.40
2018-07-11T12:37:19.240Z,5.33
2018-07-11T12:38:26.767Z,5.00
2018-07-11T12:39:33.805Z,5.67
2018-07-11T12:40:40.719Z,5.47
2018-07-11T12:41:47.728Z,4.80
2018-07-11T12:42:53.987Z,5.17
2018-07-11T12:44:01.706Z,5.60
2018-07-11T12:45:09.143Z,4.63
2018-07-11T12:46:16.149Z,5.20
2018-07-11T12:47:29.611Z,5.40
2018-07-11T12:48:41.507Z,4.97
2018-07-11T12:49:48.241Z,5.20
2018-07-11T12:50:56.637Z,4.97
2018-07-11T12:52:04.408Z,5.73
2018-07-11T12:53:10.746Z,5.23
2018-07-11T12:54:18.431Z,4.80
2018-07-11T12:55:25.677Z,4.50
2018-07-11T12:56:32.430Z,5.30
2018-07-11T12:57:38.872Z,5.13
2018-07-11T12:58:45.248Z,4.83
2018-07-11T12:59:54.534Z,5.70
2018-07-11T13:01:01.645Z,5.97
2018-07-11T13:02:07.768Z,5.30
2018-07-11T13:03:14.200Z,5.13
2018-07-11T13:04:21.907Z,4.80
2018-07-11T13:05:29.423Z,4.73
2018-07-11T13:06:35.800Z,5.43
2018-07-11T13:07:44.523Z,5.10
2018-07-11T13:08:51.414Z,4.80
2018-07-11T13:10:00.928Z,5.80
2018-07-11T13:11:07.500Z,5.00
2018-07-11T13:12:13.725Z,4.97
2018-07-11T13:13:20.241Z,5.70
2018-07-11T13:14:30.159Z,5.30
2018-07-11T13:15:37.412Z,5.03
2018-07-11T13:16:43.899Z,6.10
2018-07-11T13:17:52.252Z,4.93
2018-07-11T13:19:00.458Z,5.23
2018-07-11T13:20:07.151Z,5.27
2018-07-11T13:21:14.179Z,5.87
2018-07-11T13:22:20.901Z,5.03
2018-07-11T13:23:27.299Z,5.57
2018-07-11T13:24:35.326Z,5.67
2018-07-11T13:25:42.250Z,5.30
2018-07-11T13:26:50.618Z,5.17
2018-07-11T13:27:56.923Z,5.90
2018-07-11T13:29:04.345Z,5.30
2018-07-11T13:30:11.660Z,5.77
2018-07-11T13:31:18.997Z,6.10
2018-07-11T13:32:27.669Z,5.60
2018-07-11T13:33:34.177Z,6.10
2018-07-11T13:34:42.165Z,6.47
2018-07-11T13:35:49.899Z,6.03
2018-07-11T13:36:57.154Z,5.90
2018-07-11T13:38:04.373Z,6.03
2018-07-11T13:39:20.662Z,6.10
2018-07-11T13:40:26.811Z,5.90
2018-07-11T13:41:32.967Z,6.30
2018-07-11T13:42:39.577Z,5.70
2018-07-11T13:43:45.810Z,5.93
2018-07-11T13:44:51.948Z,5.90
2018-07-11T13:45:58.275Z,6.07
2018-07-11T13:47:08.486Z,6.70
2018-07-11T13:48:15.216Z,6.77
2018-07-11T13:49:22.098Z,5.63
2018-07-11T13:50:29.139Z,5.83
2018-07-11T13:51:35.358Z,5.93
2018-07-11T13:52:42.726Z,5.87
2018-07-11T13:53:49.244Z,5.97
2018-07-11T13:54:55.774Z,6.77
2018-07-11T13:56:02.717Z,6.20
2018-07-11T13:57:10.352Z,6.10
2018-07-11T13:58:18.813Z,6.17
2018-07-11T13:59:25.053Z,5.97
2018-07-11T14:00:32.440Z,6.13
2018-07-11T14:01:40.653Z,6.60
2018-07-11T14:02:48.314Z,6.07
2018-07-11T14:03:56.548Z,6.50
2018-07-11T14:05:02.900Z,6.67
2018-07-11T14:06:10.078Z,5.93
2018-07-11T14:07:38.234Z,5.87
2018-07-11T14:08:47.656Z,6.47
2018-07-11T14:10:06.568Z,6.33
2018-07-11T14:11:26.558Z,6.27
2018-07-11T14:12:43.948Z,5.80
2018-07-11T14:13:57.240Z,5.60
2018-07-11T14:15:05.662Z,6.17
2018-07-11T14:16:12.610Z,5.80
2018-07-11T14:17:18.940Z,5.83
2018-07-11T14:18:26.838Z,6.37
2018-07-11T14:19:35.570Z,6.47
2018-07-11T14:20:42.040Z,6.50
2018-07-11T14:21:48.262Z,6.57
2018-07-11T14:22:54.683Z,6.03
2018-07-11T14:24:04.395Z,6.27
2018-07-11T14:25:12.701Z,6.37
2018-07-11T14:26:22.196Z,6.40
2018-07-11T14:27:29.046Z,6.50
2018-07-11T14:28:35.774Z,6.70
2018-07-11T14:29:43.788Z,5.63
2018-07-11T14:30:50.698Z,6.90
2018-07-11T14:31:58.012Z,5.90
2018-07-11T14:33:06.343Z,7.40
2018-07-11T14:34:15.304Z,6.60
2018-07-11T14:35:21.912Z,5.33
2018-07-11T14:36:28.965Z,6.33
2018-07-11T14:37:35.374Z,6.27
2018-07-11T14:38:41.582Z,5.50
2018-07-11T14:39:47.985Z,5.87
2018-07-11T14:40:55.372Z,6.10
2018-07-11T14:42:02.772Z,5.87
2018-07-11T14:43:08.999Z,5.97
2018-07-11T14:44:15.630Z,5.87
2018-07-11T14:45:23.336Z,5.60
2018-07-11T14:46:32.740Z,6.10
2018-07-11T14:47:44.910Z,6.50
2018-07-11T14:48:51.446Z,6.60
2018-07-11T14:49:58.159Z,6.00
2018-07-11T14:51:04.650Z,6.07
2018-07-11T14:52:11.084Z,6.33
2018-07-11T14:53:17.880Z,5.90
2018-07-11T14:54:25.356Z,6.17
2018-07-11T14:55:32.686Z,6.20
2018-07-11T14:56:39.259Z,6.40
2018-07-11T14:57:46.751Z,5.80
2018-07-11T14:58:56.243Z,6.20
2018-07-11T15:00:04.620Z,5.03
2018-07-11T15:01:12.275Z,5.60
2018-07-11T15:02:18.612Z,5.43
2018-07-11T15:03:24.745Z,6.33
2018-07-11T15:04:31.247Z,6.40
2018-07-11T15:05:37.849Z,5.90
2018-07-11T15:06:44.579Z,5.90
2018-07-11T15:07:51.049Z,6.10
2018-07-11T15:08:57.738Z,6.00
2018-07-11T15:10:05.042Z,6.13
2018-07-11T15:11:15.550Z,6.23
2018-07-11T15:12:22.527Z,6.17
2018-07-11T15:13:29.343Z,6.47
2018-07-11T15:14:36.054Z,6.27
2018-07-11T15:15:43.886Z,6.37
2018-07-11T15:16:50.447Z,6.43
2018-07-11T15:17:56.869Z,6.53
2018-07-11T15:19:04.925Z,6.37
2018-07-11T15:20:12.412Z,6.50
2018-07-11T15:21:18.997Z,6.73
2018-07-11T15:22:25.693Z,5.43
2018-07-11T15:23:33.019Z,6.23
2018-07-11T15:24:39.329Z,5.70
2018-07-11T15:25:48.423Z,6.07
2018-07-11T15:26:54.953Z,5.70
2018-07-11T15:28:01.708Z,6.03
2018-07-11T15:29:08.167Z,5.93
2018-07-11T15:30:14.775Z,6.33
2018-07-11T15:31:21.081Z,6.63
2018-07-11T15:32:27.525Z,5.90
2018-07-11T15:33:34.095Z,5.87
2018-07-11T15:34:40.760Z,6.10
2018-07-11T15:35:48.817Z,6.13
2018-07-11T15:36:57.416Z,6.47
2018-07-11T15:38:05.249Z,5.90
2018-07-11T15:39:11.645Z,6.17
2018-07-11T15:40:18.139Z,5.70
2018-07-11T15:41:26.361Z,6.17
2018-07-11T15:42:33.537Z,6.17
2018-07-11T15:43:41.035Z,6.10
2018-07-11T15:44:48.428Z,5.97
2018-07-11T15:45:56.389Z,5.90
2018-07-11T15:47:04.177Z,6.17
2018-07-11T15:48:12.651Z,6.27
2018-07-11T15:49:19.165Z,6.20
2018-07-11T15:50:25.873Z,5.80
2018-07-11T15:51:34.567Z,5.60
2018-07-11T15:52:43.423Z,6.13
2018-07-11T15:53:50.063Z,5.57
2018-07-11T15:55:01.218Z,6.00
2018-07-11T15:56:07.781Z,6.30
2018-07-11T15:57:14.766Z,6.30
2018-07-11T15:58:23.047Z,6.63
2018-07-11T15:59:32.585Z,5.93
2018-07-11T16:00:41.563Z,5.80
2018-07-11T16:01:55.233Z,6.23
2018-07-11T16:03:04.145Z,6.10
2018-07-11T16:04:12.201Z,6.17
2018-07-11T16:05:21.970Z,6.40
2018-07-11T16:06:28.472Z,6.00
2018-07-11T16:07:39.828Z,6.23
2018-07-11T16:08:52.715Z,6.57
2018-07-11T16:10:01.051Z,5.80
2018-07-11T16:11:07.936Z,5.90
2018-07-11T16:12:14.389Z,6.10
2018-07-11T16:13:23.875Z,5.40
2018-07-11T16:14:30.237Z,6.17
2018-07-11T16:15:36.595Z,6.37
2018-07-11T16:16:43.683Z,5.57
2018-07-11T16:17:51.988Z,5.50
2018-07-11T16:18:59.577Z,5.83
2018-07-11T16:20:06.238Z,5.27
2018-07-11T16:21:12.502Z,5.30
2018-07-11T16:22:19.053Z,4.97
2018-07-11T16:23:26.232Z,5.10
2018-07-11T16:24:36.811Z,5.40
2018-07-11T16:25:44.064Z,6.60
2018-07-11T16:26:52.720Z,5.67
2018-07-11T16:28:03.356Z,5.40
2018-07-11T16:29:10.209Z,5.80
2018-07-11T16:30:19.647Z,6.77
2018-07-11T16:31:26.163Z,7.00
2018-07-11T16:32:32.574Z,5.40
2018-07-11T16:33:40.036Z,5.53
2018-07-11T16:34:46.652Z,5.87
2018-07-11T16:35:56.349Z,5.30
2018-07-11T16:37:02.784Z,6.17
2018-07-11T16:38:10.831Z,5.80
2018-07-11T16:39:17.420Z,6.60
2018-07-11T16:40:28.811Z,6.50
2018-07-11T16:41:35.910Z,6.20
2018-07-11T16:42:42.282Z,5.97
2018-07-11T16:43:48.587Z,6.63
2018-07-11T16:44:55.618Z,6.50
2018-07-11T16:46:02.547Z,6.60
2018-07-11T16:47:09.256Z,5.30
2018-07-11T16:48:15.791Z,5.83
2018-07-11T16:49:23.090Z,6.07
2018-07-11T16:50:30.794Z,5.40
2018-07-11T16:51:38.144Z,5.63
2018-07-11T16:52:44.593Z,6.00
2018-07-11T16:53:51.264Z,6.57
2018-07-11T16:54:57.945Z,5.67
2018-07-11T16:56:04.467Z,5.40
2018-07-11T16:57:12.332Z,5.37
2018-07-11T16:58:25.415Z,6.10
2018-07-11T16:59:50.626Z,5.93
2018-07-11T17:00:59.505Z,5.90
2018-07-11T17:02:06.736Z,5.97
2018-07-11T17:03:16.232Z,4.83
2018-07-11T17:04:25.135Z,5.90
2018-07-11T17:05:34.898Z,5.33
2018-07-11T17:06:41.431Z,5.47
2018-07-11T17:07:54.233Z,5.93
2018-07-11T17:09:01.061Z,5.80
2018-07-11T17:10:09.357Z,5.50
2018-07-11T17:11:24.449Z,6.00
2018-07-11T17:12:31.285Z,5.73
2018-07-11T17:13:38.639Z,5.77
2018-07-11T17:14:48.455Z,6.00
2018-07-11T17:15:55.639Z,5.30
2018-07-11T17:17:03.393Z,4.73
2018-07-11T17:18:14.945Z,5.80
2018-07-11T17:19:35.095Z,5.80
2018-07-11T17:20:42.446Z,5.70
2018-07-11T17:21:50.357Z,5.77
2018-07-11T17:23:00.109Z,4.60
2018-07-11T17:24:09.482Z,5.03
2018-07-11T17:25:16.761Z,5.00
2018-07-11T17:26:26.697Z,5.17
2018-07-11T17:27:34.194Z,4.70
2018-07-11T17:28:41.293Z,5.53
2018-07-11T17:29:50.337Z,4.70
2018-07-11T17:30:59.186Z,5.00
2018-07-11T17:32:10.462Z,5.20
2018-07-11T17:33:20.156Z,5.60
2018-07-11T17:34:27.941Z,4.57
2018-07-11T17:35:36.031Z,5.10
2018-07-11T17:36:43.381Z,6.10
2018-07-11T17:37:52.771Z,5.60
2018-07-11T17:38:59.962Z,4.93
2018-07-11T17:40:10.197Z,5.90
2018-07-11T17:41:16.752Z,5.70
2018-07-11T17:42:28.079Z,5.73
2018-07-11T17:43:40.983Z,5.17
2018-07-11T17:44:54.335Z,5.60
2018-07-11T17:46:00.889Z,5.40
2018-07-11T17:47:07.767Z,5.57
2018-07-11T17:48:56.692Z,5.17
2018-07-11T17:50:06.642Z,5.23
2018-07-11T17:51:20.934Z,5.73
2018-07-11T17:52:29.293Z,5.70
2018-07-11T17:53:47.364Z,5.97
2018-07-11T17:55:12.947Z,5.50
2018-07-11T17:56:24.936Z,5.10
2018-07-11T17:58:05.367Z,6.87
2018-07-11T17:59:12.845Z,5.77
2018-07-11T18:00:28.285Z,5.07
2018-07-11T18:01:45.605Z,5.50
2018-07-11T18:02:57.658Z,5.77
2018-07-11T18:06:18.692Z,5.47
2018-07-11T18:07:49.344Z,5.53
2018-07-11T18:09:07.973Z,5.80
2018-07-11T18:10:50.321Z,6.00
2018-07-11T18:12:08.969Z,5.57
2018-07-11T18:13:40.878Z,5.40
2018-07-11T18:15:09.153Z,5.40
2018-07-11T18:16:32.068Z,6.93
2018-07-11T18:17:46.193Z,5.10
2018-07-11T18:19:00.890Z,5.10
2018-07-11T18:20:20.159Z,5.93
2018-07-11T18:21:32.274Z,5.40
2018-07-11T18:22:49.295Z,5.80
2018-07-11T18:24:02.698Z,5.53
2018-07-11T18:25:20.681Z,6.07
2018-07-11T18:26:38.643Z,5.93
2018-07-11T18:28:01.707Z,5.63
2018-07-11T18:29:18.016Z,5.37
2018-07-11T18:30:34.632Z,4.67
2018-07-11T18:33:09.237Z,5.70
2018-07-11T18:35:29.569Z,5.90
2018-07-11T18:37:50.543Z,5.87
2018-07-11T18:39:14.338Z,6.10
2018-07-11T18:40:42.958Z,5.40
2018-07-11T18:41:59.822Z,5.00
2018-07-11T18:45:22.197Z,5.33
2018-07-11T18:46:46.937Z,5.40
2018-07-11T18:48:19.886Z,5.40
2018-07-11T18:49:32.132Z,5.50
2018-07-11T18:51:20.233Z,5.10
2018-07-11T18:52:33.941Z,5.20
2018-07-11T18:53:55.779Z,5.90
2018-07-11T18:55:19.951Z,6.13
2018-07-11T18:56:43.536Z,5.83
2018-07-11T18:59:04.516Z,6.03
2018-07-11T19:00:45.215Z,5.80
2018-07-11T19:02:05.172Z,5.33
2018-07-11T19:05:28.198Z,5.90
2018-07-11T19:06:48.297Z,5.37
2018-07-11T19:08:00.454Z,5.10
2018-07-11T19:09:11.597Z,5.50
2018-07-11T19:10:30.234Z,5.63
2018-07-11T19:11:45.662Z,5.00
2018-07-11T19:13:02.926Z,5.80
2018-07-11T19:14:10.085Z,5.73
2018-07-11T19:15:21.905Z,5.70
2018-07-11T19:16:37.457Z,5.90
2018-07-11T19:18:06.234Z,6.10
2018-07-11T19:19:16.925Z,5.97
2018-07-11T19:20:38.881Z,5.50
2018-07-11T19:24:00.878Z,5.47
2018-07-11T19:25:17.902Z,5.40
2018-07-11T19:27:33.976Z,5.20
2018-07-11T19:28:51.946Z,4.90
2018-07-11T19:30:07.640Z,5.50
2018-07-11T19:31:26.976Z,6.07
2018-07-11T19:33:00.227Z,5.73
2018-07-11T19:36:27.259Z,5.47
2018-07-11T19:37:46.920Z,5.50
2018-07-11T19:39:03.870Z,4.90
2018-07-11T19:40:20.774Z,5.90
2018-07-11T19:41:52.344Z,6.27
2018-07-11T19:43:23.061Z,5.50
2018-07-11T19:44:40.813Z,6.10
2018-07-11T19:46:00.675Z,5.80
2018-07-11T19:48:30.364Z,5.47
2018-07-11T19:49:53.864Z,6.03
2018-07-11T19:51:13.411Z,5.67
2018-07-11T19:52:32.383Z,5.30
2018-07-11T19:53:53.462Z,5.97
2018-07-11T19:56:11.388Z,5.43
2018-07-11T19:57:17.961Z,5.50
2018-07-11T19:58:25.854Z,5.70
2018-07-11T19:59:33.208Z,5.53
2018-07-11T20:00:40.983Z,4.83
2018-07-11T20:01:48.262Z,5.87
2018-07-11T20:02:54.879Z,5.73
2018-07-11T20:04:03.203Z,4.80
2018-07-11T20:05:10.640Z,5.43
2018-07-11T20:06:18.797Z,5.27
2018-07-11T20:07:26.017Z,5.37
2018-07-11T20:08:32.516Z,5.60
2018-07-11T20:09:40.005Z,5.63
2018-07-11T20:10:46.304Z,5.90
2018-07-11T20:11:53.764Z,5.33
2018-07-11T20:13:00.132Z,5.70
2018-07-11T20:14:06.625Z,5.00
2018-07-11T20:15:15.799Z,4.90
2018-07-11T20:16:23.672Z,5.97
2018-07-11T20:17:34.307Z,5.93
2018-07-11T20:18:45.961Z,6.10
2018-07-11T20:19:53.530Z,5.33
2018-07-11T20:21:00.817Z,5.87
2018-07-11T20:22:08.737Z,5.63
2018-07-11T20:23:16.254Z,5.43
2018-07-11T20:24:24.040Z,5.93
2018-07-11T20:25:32.242Z,5.70
2018-07-11T20:26:38.943Z,5.70
2018-07-11T20:27:45.815Z,4.87
2018-07-11T20:28:53.418Z,5.47
2018-07-11T20:30:03.386Z,5.93
2018-07-11T20:31:13.554Z,5.53
2018-07-11T20:32:21.140Z,5.60
2018-07-11T20:33:28.254Z,5.70
2018-07-11T20:34:34.820Z,6.27
2018-07-11T20:35:42.580Z,5.63
2018-07-11T20:36:50.226Z,5.00
2018-07-11T20:37:57.000Z,5.27
2018-07-11T20:39:05.080Z,5.00
2018-07-11T20:40:11.889Z,5.10
2018-07-11T20:41:18.659Z,5.67
2018-07-11T20:42:25.548Z,5.23
2018-07-11T20:43:34.422Z,5.20
2018-07-11T20:44:42.214Z,5.27
2018-07-11T20:45:48.778Z,5.83
2018-07-11T20:46:55.512Z,5.30
2018-07-11T20:48:02.940Z,4.80
2018-07-11T20:49:14.787Z,5.53
2018-07-11T20:50:22.831Z,5.83
2018-07-11T20:51:29.306Z,5.63
2018-07-11T20:52:35.828Z,5.60
2018-07-11T20:53:43.193Z,5.37